x

Columbia River Bar - 20nm West Of Columbia River Mouth (46029) Wave Buoy

12:50am - Sun 21st Sep 2014 All times are PDT. -7 hours from GMT.

  • Sig Wave height 5.2ft
  • Swell Direction
  • Peak Period 12s
  • Average Period 6s
  • Wind
    22mph, 27mph gusts
  • Sea Temp 59°f
  • Air Temp 59°f
  • Sea Pressure 1009.7mb
  • Columbia River Bar - 20nm West Of Columbia River Mouth
  • Columbia River Bar - 20nm West Of Columbia River Mouth

More Historic Weather Station data

Upgrade to MSW Pro to gain access to the past 30 days of data for over 8000 Wavebouys and Weather Stations around the globe.

Join Pro

Comparision Forecast

View Surf forecast
   
Sun 09/21 12:50am 5ft 12s 6s 22 27 mph 1009.7mb 59f 59f
Sat 09/20 11:50pm 6ft 13s 7s 20 25 mph 1009.3mb 59f 62f
10:50pm 6.5ft 12s 8s 20 22 mph 1008.6mb 58f 63f
9:50pm 7ft 12s 8s 7 9 mph 1008.4mb 58f 64f
8:50pm 8ft 12s 8s 9 11 mph 1008.5mb 59f 63f
7:50pm 7ft 12s 7s 11
mph
1008.5mb 59f 62f
6:50pm 7.5ft 11s 8s 13 16 mph 1008.7mb 59f 62f
5:50pm 8.5ft 11s 8s 16 18 mph 1009.5mb 59f 62f
4:50pm 8.5ft 12s 8s 16 18 mph 1010.2mb 59f 62f
3:50pm 8.5ft 12s 8s 13 16 mph 1010.8mb 59f 63f
2:50pm 9ft 12s 9s 13 16 mph 1011.6mb 59f 63f
1:50pm 9ft 12s 9s 13 18 mph 1012.4mb 59f 62f
12:50pm 8ft 12s 8s 16 18 mph 1013.1mb 58f 62f
11:50am 9ft 13s 8s 13 16 mph 1013.8mb 58f 61f
10:50am 8ft 12s 8s 16 18 mph 1014.4mb 58f 60f
9:50am 10ft 13s 9s 16 18 mph 1015mb 58f 60f
8:50am 10ft 13s 8s 16 18 mph 1015.6mb 58f 60f
7:50am 11ft 13s 9s 16 20 mph 1016mb 58f 58f
6:50am 10.5ft 13s 9s 20 22 mph 1016.1mb 58f 57f
5:50am 12ft 13s 9s 18 22 mph 1016.4mb 58f 57f
4:50am 10.5ft 13s 9s 18 20 mph 1017mb 58f 56f
3:50am 10ft 13s 8s 18 20 mph 1017.4mb 58f 56f
2:50am 8ft 11s 8s 18 22 mph 1017.9mb 59f 56f
1:50am 8.5ft 10s 8s 18 20 mph 1018.3mb 59f 56f
12:50am 7ft 10s 7s 18 22 mph 1018.5mb 59f 57f
Fri 09/19 11:50pm 5.5ft 9s 6s 18 20 mph 1018.6mb 58f 57f
10:50pm 5ft 9s 7s 16 18 mph 1018.9mb 59f 59f
9:50pm 5ft 9s 8s 13 16 mph 1018.8mb 59f 60f
8:50pm 5ft 10s 8s 11 13 mph 1018.7mb 59f 60f
7:50pm 5ft 9s 8s 11
mph
1018.5mb 59f 60f
6:50pm 5ft 9s 8s 9 11 mph 1018.5mb 60f 61f
5:50pm 4.5ft 9s 8s 7
mph
1018.9mb 61f 62f
4:50pm 4.5ft 9s 8s 2
mph
1019.1mb 61f 63f
3:50pm 4ft 9s 8s 4 7 mph 1019.3mb 61f 62f
2:50pm 4.5ft 16s 8s 4 7 mph 1019.7mb 60f 61f
1:50pm 4ft 9s 7s 7
mph
1019.9mb 60f 61f
12:50pm 3.5ft 16s 7s 4 7 mph 1019.8mb 59f 61f
11:50am 4ft 16s 8s 9
mph
1019.4mb 58f 60f
10:50am 4ft 16s 7s 11
mph
1019mb 59f 60f
9:50am 4.5ft 16s 8s 7 9 mph 1018.9mb 59f 60f
8:50am 4.5ft 16s 8s 9
mph
1018.3mb 59f 60f
7:50am 4.5ft 9s 8s 7 9 mph 1018mb 59f 60f
6:50am 4.5ft 9s 8s 4 7 mph 1017.3mb 59f 60f
5:50am 5ft 8s 8s 4 7 mph 1017.1mb 59f 60f
4:50am 5ft 16s 9s 4 7 mph 1016.9mb 59f 60f
3:50am 4.5ft 16s 9s 7
mph
1016.6mb 59f 60f
2:50am 5ft 9s 9s 4 7 mph 1016.4mb 59f 60f
1:50am 4.5ft 10s 8s 4 7 mph 1016.2mb 59f 60f
12:50am 5ft 17s 9s 7
mph
1015.9mb 59f 61f
Thu 09/18 11:50pm 5ft 9s 8s 4 7 mph 1015.4mb 59f 60f
10:50pm 4.5ft 16s 8s 7
mph
1015.4mb 59f 61f
9:50pm 5ft 10s 8s 7 9 mph 1014.7mb 59f 61f
8:50pm 5ft 10s 8s 7
mph
1014.3mb 60f 61f
7:50pm 5ft 10s 8s 7 9 mph 1013.4mb 60f 61f
6:50pm 5.5ft 10s 9s 4
mph
1013.3mb 60f 61f
5:50pm 4.5ft 9s 8s 7
mph
1013.1mb 60f 61f
4:50pm 5ft 11s 9s 7 9 mph 1012.8mb 60f 61f
3:50pm 5ft 11s 9s 7 9 mph 1012.4mb 60f 61f
2:50pm 5ft 10s 9s 9
mph
1012.1mb 60f 60f
1:50pm 5ft 11s 9s 9 11 mph 1011.8mb 59f 60f
12:50pm 5.5ft 11s 10s 9 11 mph 1011.4mb 59f 60f
11:50am 6ft 11s 10s 7
mph
1011.1mb 59f 60f
10:50am 5.5ft 11s 9s 9
mph
1010.5mb 59f 60f
9:50am 5.5ft 11s 10s 7
mph
1010mb 59f 59f
8:50am 5.5ft 11s 10s 7 9 mph 1009.3mb 59f 58f
7:50am 5.5ft 11s 10s 7
mph
1008.7mb 59f 58f
6:50am 5ft 11s 10s 4 7 mph 1008.1mb 59f 59f
5:50am 5.5ft 11s 10s 4
mph
1007.9mb 59f 58f
4:50am 5ft 11s 10s 2 4 mph 1007.7mb 59f 59f
3:50am 5ft 17s 10s  -  2 mph 1007.5mb 59f 59f
2:50am 5.5ft 12s 10s 2
mph
1007.5mb 59f 59f
1:50am 5.5ft 12s 10s 2 4 mph 1007.5mb 59f 59f
12:50am 5ft 11s 10s 4 7 mph 1007.4mb 59f 59f
Wed 09/17 11:50pm 6ft 12s 10s 2 4 mph 1007.6mb 59f 59f
10:50pm 5.5ft 11s 10s 2 4 mph 1007.7mb 59f 59f
9:50pm 6ft 12s 10s 4 7 mph 1007.5mb 59f 59f
8:50pm 6ft 13s 10s 9 11 mph 1006.9mb 59f 59f
7:50pm 5.5ft 13s 10s 11
mph
1006.8mb 59f 59f
6:50pm 6.5ft 12s 10s 9
mph
1007.5mb 59f 60f
5:50pm 6ft 13s 10s 4 9 mph 1008.4mb 59f 60f
4:50pm 6ft 12s 10s 2 4 mph 1007.3mb 59f 60f
3:50pm 6ft 13s 10s 7 9 mph 1007.1mb 59f 60f
2:50pm 7ft 13s 10s 7 9 mph 1007.2mb 59f 61f
1:50pm 6ft 13s 10s 7 9 mph 1007.3mb 59f 60f
12:50pm 6.5ft 14s 10s 2 4 mph 1007.5mb 59f 60f
11:50am 6.5ft 13s 10s 7
mph
1007.3mb 59f 60f
10:50am 6ft 12s 10s 9 11 mph 1007.1mb 58f 59f
9:50am 6ft 13s 10s 4
mph
1007.7mb 58f 59f